Time;durP1;ratioP1;P1;durP2;ratioP2;P2;SDS_P1;SDS_P2;PMS_P1;PMS_P2;Temp;Humidity;BMP_temperature;BMP_pressure;BME280_temperature;BME280_humidity;BME280_pressure;Samples;Min_cycle;Max_cycle;Signal;HPM_P1;HPM_P2
2023/09/27 00:00:10;;;;;;;30.95;27.88;;;15.20;99.90;;;;;;6151825;23;20365;-93
2023/09/27 00:02:38;;;;;;;30.27;27.57;;;14.80;99.90;;;;;;6151970;23;20679;-94
2023/09/27 00:05:06;;;;;;;30.27;27.50;;;15.10;99.90;;;;;;6151303;23;20377;-92
2023/09/27 00:07:37;;;;;;;32.37;29.30;;;14.80;99.90;;;;;;6151368;23;21145;-93
2023/09/27 00:10:03;;;;;;;32.42;29.40;;;15.30;99.90;;;;;;6151553;23;20378;-92
2023/09/27 00:12:29;;;;;;;34.13;30.90;;;14.70;99.90;;;;;;6151730;23;20441;-92
2023/09/27 00:14:57;;;;;;;39.65;35.85;;;15.20;99.90;;;;;;6151087;23;20368;-93
2023/09/27 00:17:23;;;;;;;33.65;30.50;;;15.00;99.90;;;;;;6150671;23;20484;-92
2023/09/27 00:19:49;;;;;;;33.00;29.88;;;14.70;99.90;;;;;;6150962;23;20959;-92
2023/09/27 00:22:15;;;;;;;35.20;32.03;;;14.90;99.90;;;;;;6152365;23;20401;-93
2023/09/27 00:24:41;;;;;;;30.95;28.15;;;14.90;99.90;;;;;;6153547;23;20377;-92
2023/09/27 00:27:07;;;;;;;32.37;29.50;;;14.90;99.90;;;;;;6153320;23;20366;-93
2023/09/27 00:29:34;;;;;;;37.13;33.67;;;14.90;99.90;;;;;;6153450;23;20397;-93
2023/09/27 00:32:00;;;;;;;33.83;30.60;;;15.00;99.90;;;;;;6153338;23;20396;-92
2023/09/27 00:34:25;;;;;;;30.70;27.95;;;15.00;99.90;;;;;;6153489;23;20854;-92
2023/09/27 00:36:51;;;;;;;32.50;29.47;;;14.40;99.90;;;;;;6154461;23;20877;-92
2023/09/27 00:39:17;;;;;;;32.78;29.70;;;14.90;99.90;;;;;;6153444;23;20407;-93
2023/09/27 00:41:43;;;;;;;34.20;30.90;;;15.40;99.90;;;;;;6153693;23;20901;-92
2023/09/27 00:44:08;;;;;;;35.33;32.13;;;14.80;99.90;;;;;;6153053;23;21202;-94
2023/09/27 00:46:35;;;;;;;36.60;33.23;;;14.80;99.90;;;;;;6152782;23;20873;-92
2023/09/27 00:49:01;;;;;;;37.33;33.83;;;14.40;99.90;;;;;;6152928;23;20404;-92
2023/09/27 00:51:27;;;;;;;39.90;36.17;;;14.60;99.90;;;;;;6153458;23;20370;-92
2023/09/27 00:53:54;;;;;;;36.67;33.17;;;15.20;99.90;;;;;;6153259;23;20373;-93
2023/09/27 00:56:21;;;;;;;34.50;31.20;;;14.80;99.90;;;;;;6153418;23;20388;-93
2023/09/27 00:58:47;;;;;;;38.42;34.78;;;14.90;99.90;;;;;;6153386;23;20370;-92
2023/09/27 01:01:13;;;;;;;37.55;33.85;;;14.70;99.90;;;;;;6153118;23;20439;-93
2023/09/27 01:03:40;;;;;;;35.35;32.25;;;14.40;99.90;;;;;;6153241;23;20706;-93
2023/09/27 01:06:06;;;;;;;39.87;36.13;;;14.40;99.90;;;;;;6152989;23;20700;-92
2023/09/27 01:08:32;;;;;;;36.22;32.92;;;14.80;99.90;;;;;;6153010;23;20397;-93
2023/09/27 01:10:58;;;;;;;33.13;30.02;;;14.50;99.90;;;;;;6152811;23;20456;-94
2023/09/27 01:13:24;;;;;;;36.17;32.88;;;14.40;99.90;;;;;;6152864;23;21044;-92
2023/09/27 01:15:49;;;;;;;37.47;33.93;;;14.70;99.90;;;;;;6152773;23;20381;-92
2023/09/27 01:18:15;;;;;;;36.75;33.38;;;14.60;99.90;;;;;;6152982;23;20405;-93
2023/09/27 01:20:41;;;;;;;41.03;37.13;;;14.80;99.90;;;;;;6128552;23;20434;-94
2023/09/27 01:23:06;;;;;;;39.22;35.50;;;15.00;99.90;;;;;;6152236;23;20370;-93
2023/09/27 01:25:37;;;;;;;41.73;37.67;;;14.70;99.90;;;;;;6152205;23;20854;-93
2023/09/27 01:28:03;;;;;;;38.50;35.00;;;14.10;99.90;;;;;;6152156;23;20397;-94
2023/09/27 01:30:32;;;;;;;38.38;34.78;;;14.30;99.90;;;;;;6152203;23;20377;-93
2023/09/27 01:33:06;;;;;;;41.17;37.17;;;14.60;99.90;;;;;;6152605;23;20420;-93
2023/09/27 01:35:37;;;;;;;36.33;32.92;;;14.30;99.90;;;;;;6152698;23;20439;-93
2023/09/27 01:38:04;;;;;;;36.85;33.42;;;14.80;99.90;;;;;;6152548;23;20711;-93
2023/09/27 01:40:30;;;;;;;38.58;34.90;;;13.90;99.90;;;;;;6152419;23;20365;-91
2023/09/27 01:43:03;;;;;;;38.63;34.92;;;14.60;99.90;;;;;;6152828;23;20790;-93
2023/09/27 01:45:30;;;;;;;38.20;34.63;;;14.20;99.90;;;;;;6152341;23;20851;-95
2023/09/27 01:47:59;;;;;;;37.58;34.17;;;14.50;99.90;;;;;;6152605;23;20396;-93
2023/09/27 01:50:25;;;;;;;39.70;35.97;;;14.10;99.90;;;;;;6152739;23;20374;-93
2023/09/27 01:52:52;;;;;;;42.78;38.67;;;14.40;99.90;;;;;;6176960;23;20424;-92
2023/09/27 01:55:18;;;;;;;41.28;37.40;;;14.60;99.90;;;;;;6153464;23;20702;-94
2023/09/27 01:57:46;;;;;;;45.03;40.58;;;14.70;99.90;;;;;;6151994;23;20365;-93
2023/09/27 02:00:14;;;;;;;37.58;34.15;;;14.40;99.90;;;;;;6152035;23;20377;-93
2023/09/27 02:03:00;;;;;;;37.10;33.80;;;14.10;99.90;;;;;;6152156;23;20373;-92
2023/09/27 02:05:27;;;;;;;35.75;32.55;;;14.40;99.90;;;;;;6152183;23;20459;-94
2023/09/27 02:07:53;;;;;;;37.17;33.60;;;14.40;99.90;;;;;;6151991;23;20393;-93
2023/09/27 02:10:19;;;;;;;37.92;34.30;;;13.90;99.90;;;;;;6151817;23;20372;-93
2023/09/27 02:12:45;;;;;;;36.97;33.53;;;14.10;99.90;;;;;;6152194;23;20370;-93
2023/09/27 02:15:12;;;;;;;30.67;27.90;;;14.50;99.90;;;;;;6151852;23;20373;-93
2023/09/27 02:17:39;;;;;;;36.05;32.75;;;14.50;99.90;;;;;;6151848;23;20373;-93
2023/09/27 02:20:07;;;;;;;35.85;32.55;;;14.10;99.90;;;;;;6151906;23;20412;-93
2023/09/27 02:22:36;;;;;;;37.10;33.60;;;14.00;99.90;;;;;;6152098;23;20396;-93
2023/09/27 02:25:03;;;;;;;37.90;34.30;;;14.50;99.90;;;;;;6152872;23;20374;-93
2023/09/27 02:27:28;;;;;;;38.80;35.22;;;14.00;99.90;;;;;;6152072;23;20372;-93
2023/09/27 02:29:54;;;;;;;32.90;29.83;;;14.20;99.90;;;;;;6152429;23;20377;-92
2023/09/27 02:32:20;;;;;;;34.42;31.30;;;13.90;99.90;;;;;;6151673;23;20546;-93
2023/09/27 02:34:46;;;;;;;36.13;32.72;;;14.10;99.90;;;;;;6152203;23;20377;-93
2023/09/27 02:37:15;;;;;;;34.40;31.33;;;14.10;99.90;;;;;;6152050;23;20385;-92
2023/09/27 02:39:42;;;;;;;29.95;27.30;;;14.40;99.90;;;;;;6152180;23;20366;-92
2023/09/27 02:42:09;;;;;;;32.33;29.37;;;14.10;99.90;;;;;;6152055;23;20850;-93
2023/09/27 02:44:35;;;;;;;33.00;30.10;;;14.10;99.90;;;;;;6151588;23;20750;-92
2023/09/27 02:47:00;;;;;;;28.98;26.33;;;14.30;99.90;;;;;;6152449;23;20416;-93
2023/09/27 02:49:26;;;;;;;31.33;28.38;;;14.20;99.90;;;;;;6151919;23;20472;-94
2023/09/27 02:51:53;;;;;;;33.23;30.13;;;14.00;99.90;;;;;;6151677;23;20889;-93
2023/09/27 02:54:19;;;;;;;39.05;35.25;;;14.20;99.90;;;;;;6151509;23;20373;-93
2023/09/27 02:56:45;;;;;;;33.78;30.73;;;13.90;99.90;;;;;;6151646;23;20365;-92
2023/09/27 02:59:11;;;;;;;34.35;31.15;;;13.90;99.90;;;;;;6151738;23;20900;-93
2023/09/27 03:01:40;;;;;;;33.17;30.20;;;14.10;99.90;;;;;;6152088;23;20372;-92
2023/09/27 03:04:06;;;;;;;36.63;33.30;;;13.90;99.90;;;;;;6152454;23;20423;-93
2023/09/27 03:06:33;;;;;;;42.67;38.42;;;14.10;99.90;;;;;;6151627;23;20392;-93
2023/09/27 03:08:58;;;;;;;35.13;31.90;;;14.20;99.90;;;;;;6151614;23;20400;-93
2023/09/27 03:11:24;;;;;;;35.47;32.10;;;13.80;99.90;;;;;;6151364;23;20365;-93
2023/09/27 03:13:50;;;;;;;37.85;34.25;;;14.50;99.90;;;;;;6151643;23;20373;-92
2023/09/27 03:16:16;;;;;;;35.80;32.60;;;13.90;99.90;;;;;;6151447;23;20377;-93
2023/09/27 03:18:42;;;;;;;33.97;30.85;;;13.40;99.90;;;;;;6151397;23;20384;-92
2023/09/27 03:21:08;;;;;;;32.23;29.33;;;13.50;99.90;;;;;;6151537;23;20449;-92
2023/09/27 03:23:33;;;;;;;32.30;29.38;;;13.60;99.90;;;;;;6151529;23;20411;-93
2023/09/27 03:25:59;;;;;;;30.92;28.23;;;14.50;99.90;;;;;;6152095;23;20369;-93
2023/09/27 03:28:25;;;;;;;47.77;42.80;;;13.60;99.90;;;;;;6151202;23;20394;-93
2023/09/27 03:30:50;;;;;;;36.30;33.08;;;13.90;99.90;;;;;;6151375;23;20381;-92
2023/09/27 03:33:16;;;;;;;31.37;28.57;;;13.90;99.90;;;;;;6151132;23;20385;-92
2023/09/27 03:35:42;;;;;;;33.20;30.23;;;13.70;99.90;;;;;;6151296;23;20373;-93
2023/09/27 03:38:08;;;;;;;95.10;57.47;;;14.00;99.90;;;;;;6151531;23;20369;-93
2023/09/27 03:40:34;;;;;;;41.38;37.22;;;13.10;99.90;;;;;;6152108;23;20424;-93
2023/09/27 03:42:59;;;;;;;35.22;31.95;;;14.30;99.90;;;;;;6152277;23;20500;-92
2023/09/27 03:45:25;;;;;;;32.37;29.47;;;13.70;99.90;;;;;;6151833;23;20369;-93
2023/09/27 03:47:51;;;;;;;34.30;31.08;;;13.90;99.90;;;;;;6152015;23;20404;-94
2023/09/27 03:50:17;;;;;;;33.35;30.35;;;13.80;99.90;;;;;;6151523;23;20370;-92
2023/09/27 03:52:44;;;;;;;32.53;29.52;;;13.30;99.90;;;;;;6151737;23;20374;-93
2023/09/27 03:55:11;;;;;;;35.85;32.55;;;14.20;99.90;;;;;;6151068;23;20365;-93
2023/09/27 03:57:37;;;;;;;37.30;33.78;;;13.60;99.90;;;;;;6151346;23;20374;-93
2023/09/27 04:00:11;;;;;;;32.63;29.67;;;14.00;99.90;;;;;;6151415;23;20366;-94
2023/09/27 04:02:36;;;;;;;38.42;34.67;;;13.30;99.90;;;;;;6151775;23;20380;-94
2023/09/27 04:05:04;;;;;;;26.87;24.57;;;12.90;99.90;;;;;;6151914;23;20706;-93
2023/09/27 04:07:29;;;;;;;31.40;28.50;;;13.30;99.90;;;;;;6151141;23;20373;-93
2023/09/27 04:09:55;;;;;;;30.48;27.77;;;13.50;99.90;;;;;;6151476;23;20388;-93
2023/09/27 04:12:21;;;;;;;34.33;31.10;;;13.90;99.90;;;;;;6152026;23;20377;-92
2023/09/27 04:14:46;;;;;;;34.17;30.92;;;13.50;99.90;;;;;;6151284;23;20361;-93
2023/09/27 04:17:13;;;;;;;34.60;31.40;;;13.70;99.90;;;;;;6151292;23;20447;-92
2023/09/27 04:19:38;;;;;;;38.77;35.00;;;13.20;99.90;;;;;;6151501;23;20377;-93
2023/09/27 04:22:04;;;;;;;30.97;28.20;;;13.10;99.90;;;;;;6151769;23;20703;-93
2023/09/27 04:24:31;;;;;;;44.85;40.03;;;13.20;99.90;;;;;;6151537;23;20373;-92
2023/09/27 04:26:58;;;;;;;39.80;36.03;;;13.50;99.90;;;;;;6151808;23;20371;-93
2023/09/27 04:29:23;;;;;;;32.58;29.60;;;13.30;99.90;;;;;;6151059;23;20402;-92
2023/09/27 04:31:49;;;;;;;38.95;35.20;;;13.10;99.90;;;;;;6151233;23;20369;-92
2023/09/27 04:34:15;;;;;;;34.80;31.60;;;12.70;99.90;;;;;;6151268;23;20417;-93
2023/09/27 04:36:41;;;;;;;32.10;29.17;;;13.10;99.90;;;;;;6151265;23;20372;-93
2023/09/27 04:39:14;;;;;;;32.10;29.23;;;13.10;99.90;;;;;;6151765;23;20377;-94
2023/09/27 04:41:40;;;;;;;33.45;30.35;;;13.30;99.90;;;;;;6151290;23;20396;-93
2023/09/27 04:44:06;;;;;;;33.05;29.95;;;13.30;99.90;;;;;;6151344;23;20866;-92
2023/09/27 04:46:34;;;;;;;32.35;29.45;;;13.20;99.90;;;;;;6150525;23;20375;-93
2023/09/27 04:49:00;;;;;;;40.70;36.65;;;12.90;99.90;;;;;;6150484;23;20905;-94
2023/09/27 04:51:26;;;;;;;46.28;41.38;;;13.40;99.90;;;;;;6150982;23;20362;-93
2023/09/27 04:53:51;;;;;;;42.65;38.60;;;13.60;99.90;;;;;;6151216;23;20823;-92
2023/09/27 04:56:17;;;;;;;34.10;31.00;;;13.00;99.90;;;;;;6151473;23;20456;-94
2023/09/27 04:58:43;;;;;;;31.77;28.90;;;13.50;99.90;;;;;;6150729;23;20707;-94
2023/09/27 05:01:11;;;;;;;33.40;30.30;;;12.80;99.90;;;;;;6151437;23;20366;-93
2023/09/27 05:03:37;;;;;;;38.63;34.88;;;13.00;99.90;;;;;;6150871;23;20460;-94
2023/09/27 05:06:04;;;;;;;39.20;35.38;;;12.80;99.90;;;;;;6151510;23;20377;-93
2023/09/27 05:08:29;;;;;;;39.55;35.88;;;12.60;99.90;;;;;;6153017;23;20393;-93
2023/09/27 05:10:56;;;;;;;31.85;29.02;;;12.10;99.90;;;;;;6152767;23;20376;-94
2023/09/27 05:13:24;;;;;;;33.30;30.20;;;12.80;99.90;;;;;;6152802;23;20373;-93
2023/09/27 05:15:51;;;;;;;38.70;35.10;;;12.70;99.90;;;;;;6152817;23;20707;-93
2023/09/27 05:18:18;;;;;;;46.17;41.63;;;12.60;99.90;;;;;;6153852;23;21151;-93
2023/09/27 05:20:44;;;;;;;41.00;37.17;;;13.00;99.90;;;;;;6153046;23;20401;-92
2023/09/27 05:23:12;;;;;;;48.03;42.90;;;12.80;99.90;;;;;;6152950;23;20874;-94
2023/09/27 05:25:38;;;;;;;45.33;40.83;;;12.80;99.90;;;;;;6152325;23;20412;-94
2023/09/27 05:28:04;;;;;;;35.00;31.90;;;12.70;99.90;;;;;;6152735;23;20393;-93
2023/09/27 05:30:31;;;;;;;43.20;39.03;;;12.50;99.90;;;;;;6152748;23;20381;-94
2023/09/27 05:32:57;;;;;;;39.72;35.90;;;13.20;99.90;;;;;;6152942;23;20429;-93
2023/09/27 05:35:22;;;;;;;41.53;37.57;;;12.80;99.90;;;;;;6153173;23;20385;-94
2023/09/27 05:37:49;;;;;;;44.58;40.25;;;12.90;99.90;;;;;;6151215;23;20365;-93
2023/09/27 05:40:15;;;;;;;44.70;40.20;;;12.60;99.90;;;;;;6153105;23;20369;-93
2023/09/27 05:42:41;;;;;;;48.33;43.57;;;12.80;99.90;;;;;;6152748;23;20495;-93
2023/09/27 05:45:11;;;;;;;42.40;38.30;;;12.90;99.90;;;;;;6152468;23;20384;-93
2023/09/27 05:47:37;;;;;;;39.45;35.75;;;12.50;99.90;;;;;;6152140;23;20402;-94
2023/09/27 05:50:04;;;;;;;67.50;55.58;;;12.50;99.90;;;;;;6151583;23;20529;-93
2023/09/27 05:52:31;;;;;;;52.20;46.87;;;12.60;99.90;;;;;;6150932;23;20411;-93
2023/09/27 05:54:57;;;;;;;48.25;43.65;;;13.00;99.90;;;;;;6151945;23;20370;-94
2023/09/27 05:57:23;;;;;;;47.85;43.15;;;12.60;99.90;;;;;;6152323;23;20380;-93
2023/09/27 05:59:49;;;;;;;46.17;41.63;;;13.60;99.90;;;;;;6151384;23;20449;-94
2023/09/27 06:02:17;;;;;;;45.93;41.53;;;13.10;99.90;;;;;;6151684;23;20400;-93
2023/09/27 06:04:49;;;;;;;50.13;45.20;;;13.10;99.90;;;;;;6152159;23;20541;-93
2023/09/27 06:07:15;;;;;;;53.10;47.63;;;13.20;99.90;;;;;;6151664;23;20858;-93
2023/09/27 06:09:41;;;;;;;54.88;49.17;;;12.80;99.90;;;;;;6152011;23;20396;-93
2023/09/27 06:12:08;;;;;;;52.58;47.28;;;13.30;99.90;;;;;;6152032;23;20421;-93
2023/09/27 06:14:34;;;;;;;50.43;45.23;;;13.10;99.90;;;;;;6151926;23;20366;-92
2023/09/27 06:17:02;;;;;;;53.85;48.38;;;13.10;99.90;;;;;;6151798;23;20378;-92
2023/09/27 06:19:28;;;;;;;55.08;49.28;;;13.40;99.90;;;;;;6152038;23;20373;-93
2023/09/27 06:21:53;;;;;;;74.67;61.50;;;13.60;99.90;;;;;;6151510;23;20480;-93
2023/09/27 06:24:19;;;;;;;77.43;60.13;;;13.50;99.90;;;;;;6151682;23;20494;-93
2023/09/27 06:26:45;;;;;;;83.93;63.25;;;13.60;99.90;;;;;;6151597;23;20876;-93
2023/09/27 06:29:10;;;;;;;51.80;46.20;;;13.20;99.90;;;;;;6151932;23;20797;-93
2023/09/27 06:31:36;;;;;;;52.17;46.88;;;13.50;99.90;;;;;;6152361;23;20387;-93
2023/09/27 06:34:02;;;;;;;48.07;43.23;;;13.40;99.90;;;;;;6152079;23;20370;-93
2023/09/27 06:36:34;;;;;;;47.53;42.83;;;13.50;99.90;;;;;;6152005;23;20425;-93
2023/09/27 06:39:00;;;;;;;52.17;46.85;;;13.60;99.90;;;;;;6151401;23;20904;-93
2023/09/27 06:41:26;;;;;;;62.10;55.35;;;13.70;99.90;;;;;;6151388;23;20445;-92
2023/09/27 06:43:53;;;;;;;70.32;58.97;;;13.70;99.90;;;;;;6151269;23;20377;-94
2023/09/27 06:46:19;;;;;;;58.22;51.97;;;13.80;99.90;;;;;;6151632;23;20449;-92
2023/09/27 06:48:45;;;;;;;65.85;58.75;;;14.20;99.90;;;;;;6151904;23;20424;-93
2023/09/27 06:51:13;;;;;;;64.32;57.08;;;14.80;99.90;;;;;;6151687;23;20378;-94
2023/09/27 06:53:39;;;;;;;63.10;56.45;;;14.60;99.90;;;;;;6151726;23;20377;-93
2023/09/27 06:56:06;;;;;;;74.07;62.22;;;14.90;99.90;;;;;;6151696;23;20428;-93
2023/09/27 06:58:32;;;;;;;66.03;58.88;;;14.80;99.90;;;;;;6151945;23;20381;-93
2023/09/27 07:00:58;;;;;;;63.70;56.80;;;14.90;99.90;;;;;;6151712;23;20378;-92
2023/09/27 07:03:24;;;;;;;63.15;56.20;;;15.10;99.90;;;;;;6151047;23;20906;-93
2023/09/27 07:05:53;;;;;;;62.03;55.47;;;15.10;99.90;;;;;;6151203;23;20896;-93
2023/09/27 07:08:19;;;;;;;64.25;57.50;;;14.80;99.90;;;;;;6150990;23;20401;-95
2023/09/27 07:10:45;;;;;;;61.90;55.33;;;15.50;99.90;;;;;;6151579;23;20373;-92
2023/09/27 07:13:11;;;;;;;56.57;50.83;;;15.10;99.90;;;;;;6151851;23;20687;-91
2023/09/27 07:15:37;;;;;;;59.90;53.55;;;15.40;99.90;;;;;;6151946;23;20502;-94
2023/09/27 07:18:04;;;;;;;58.75;52.75;;;15.80;99.90;;;;;;6151020;23;20388;-92
2023/09/27 07:20:34;;;;;;;56.38;50.60;;;15.50;99.90;;;;;;6151227;23;20393;-94
2023/09/27 07:23:03;;;;;;;57.28;51.55;;;15.50;99.90;;;;;;6150868;23;20448;-93
2023/09/27 07:25:32;;;;;;;55.67;50.08;;;16.10;99.90;;;;;;6150919;23;20373;-93
2023/09/27 07:28:00;;;;;;;59.95;53.80;;;15.60;99.90;;;;;;6151363;23;20397;-94
2023/09/27 07:30:26;;;;;;;57.22;51.33;;;15.70;99.90;;;;;;6151098;23;20373;-93
2023/09/27 07:32:56;;;;;;;56.25;50.75;;;16.10;99.90;;;;;;6151192;23;20383;-93
2023/09/27 07:35:23;;;;;;;59.43;53.33;;;16.00;99.90;;;;;;6150522;23;20372;-93
2023/09/27 07:37:49;;;;;;;55.22;49.55;;;16.20;99.90;;;;;;6150621;23;20370;-94
2023/09/27 07:40:15;;;;;;;57.70;51.90;;;16.30;99.90;;;;;;6150818;23;20380;-94
2023/09/27 07:42:43;;;;;;;56.05;50.60;;;16.00;99.90;;;;;;6150909;23;20365;-93
2023/09/27 07:45:25;;;;;;;51.97;46.95;;;16.10;99.90;;;;;;6151083;23;20373;-92
2023/09/27 07:47:53;;;;;;;52.88;47.67;;;16.10;99.90;;;;;;6151321;23;20366;-93
2023/09/27 07:50:27;;;;;;;51.58;46.50;;;16.20;99.90;;;;;;6151004;23;20373;-92
2023/09/27 07:52:57;;;;;;;52.83;47.35;;;16.60;99.90;;;;;;6152582;23;20381;-93
2023/09/27 07:55:23;;;;;;;53.95;48.65;;;16.30;99.90;;;;;;6151124;23;20460;-93
2023/09/27 07:57:49;;;;;;;52.42;47.03;;;16.90;99.90;;;;;;6151085;23;20409;-94
2023/09/27 08:00:18;;;;;;;51.40;46.60;;;16.40;99.90;;;;;;6151628;23;20391;-93
2023/09/27 08:02:45;;;;;;;53.60;48.40;;;16.80;99.90;;;;;;6151415;23;20374;-94
2023/09/27 08:05:16;;;;;;;48.60;43.90;;;16.80;99.90;;;;;;6151127;23;20385;-93
2023/09/27 08:07:42;;;;;;;44.30;40.03;;;17.10;99.90;;;;;;6151013;23;20377;-91
2023/09/27 08:10:10;;;;;;;47.90;43.17;;;17.20;99.90;;;;;;6151189;23;20401;-92
2023/09/27 08:12:38;;;;;;;49.33;44.63;;;17.30;99.90;;;;;;6151037;23;20425;-94
2023/09/27 08:15:05;;;;;;;41.17;37.47;;;17.50;99.90;;;;;;6151067;23;20370;-94
2023/09/27 08:17:32;;;;;;;43.03;39.08;;;17.60;99.90;;;;;;6150777;23;20381;-93
2023/09/27 08:19:58;;;;;;;42.78;38.63;;;18.20;99.90;;;;;;6151555;23;20377;-94
2023/09/27 08:22:24;;;;;;;40.75;36.80;;;17.80;99.90;;;;;;6151048;23;20452;-93
2023/09/27 08:24:49;;;;;;;41.50;37.60;;;18.00;99.90;;;;;;6150738;23;20396;-93
2023/09/27 08:27:17;;;;;;;39.67;35.90;;;18.10;99.90;;;;;;6150933;23;20369;-92
2023/09/27 08:29:43;;;;;;;41.50;37.60;;;18.20;99.90;;;;;;6150463;23;20902;-94
2023/09/27 08:32:08;;;;;;;40.05;36.22;;;18.80;99.90;;;;;;6150656;23;20366;-93
2023/09/27 08:34:35;;;;;;;36.77;33.20;;;18.90;99.90;;;;;;6150646;23;20454;-92
2023/09/27 08:37:01;;;;;;;38.00;34.30;;;18.70;99.90;;;;;;6150362;23;20372;-94
2023/09/27 08:39:27;;;;;;;35.97;32.67;;;18.60;99.90;;;;;;6151441;23;20826;-93
2023/09/27 08:41:57;;;;;;;36.13;32.87;;;18.40;99.90;;;;;;6151522;23;20380;-94
2023/09/27 08:44:23;;;;;;;33.53;30.33;;;19.00;99.90;;;;;;6152745;23;20746;-92
2023/09/27 08:46:50;;;;;;;37.10;33.30;;;19.30;99.90;;;;;;6152688;23;20464;-94
2023/09/27 08:49:17;;;;;;;33.67;30.35;;;19.00;99.90;;;;;;6152031;23;20492;-94
2023/09/27 08:51:45;;;;;;;32.63;29.58;;;19.20;99.90;;;;;;6152573;23;20369;-93
2023/09/27 08:54:15;;;;;;;30.65;27.65;;;19.30;99.90;;;;;;6127375;23;20373;-93
2023/09/27 08:56:41;;;;;;;30.98;27.75;;;19.60;99.90;;;;;;6152722;23;20444;-93
2023/09/27 08:59:07;;;;;;;30.75;27.67;;;19.40;99.90;;;;;;6152722;23;20401;-93
2023/09/27 09:01:33;;;;;;;30.85;27.90;;;19.70;99.90;;;;;;6153412;23;20365;-93
2023/09/27 09:03:59;;;;;;;27.43;24.63;;;19.60;99.90;;;;;;6152588;23;20375;-93
2023/09/27 09:06:27;;;;;;;27.05;24.27;;;20.10;99.90;;;;;;6152355;23;20369;-93
2023/09/27 09:08:52;;;;;;;29.08;26.27;;;19.90;99.90;;;;;;6152657;23;20393;-91
2023/09/27 09:11:22;;;;;;;29.50;26.67;;;20.20;99.90;;;;;;6152447;23;20420;-92
2023/09/27 09:14:18;;;;;;;26.48;23.92;;;20.00;99.90;;;;;;6152560;23;20481;-92
2023/09/27 09:16:51;;;;;;;28.58;25.70;;;20.10;99.90;;;;;;6150032;23;20388;-93
2023/09/27 09:19:25;;;;;;;24.88;22.58;;;20.30;99.90;;;;;;6152765;23;20388;-93
2023/09/27 09:22:08;;;;;;;23.53;21.23;;;20.50;99.90;;;;;;6152751;23;20381;-93
2023/09/27 09:24:37;;;;;;;22.92;18.60;;;21.00;99.90;;;;;;6151951;23;20405;-93
2023/09/27 09:27:10;;;;;;;22.13;18.83;;;20.70;99.90;;;;;;6152463;23;20452;-92
2023/09/27 09:29:55;;;;;;;23.15;20.73;;;20.90;99.90;;;;;;6152228;23;20397;-92
2023/09/27 09:32:22;;;;;;;21.48;19.33;;;21.30;99.90;;;;;;6152270;23;20377;-92
2023/09/27 09:34:49;;;;;;;22.55;20.45;;;21.10;99.90;;;;;;6152797;23;20427;-92
2023/09/27 09:37:23;;;;;;;23.65;20.90;;;21.30;99.90;;;;;;6152843;23;20385;-93
2023/09/27 09:39:53;;;;;;;22.87;19.90;;;21.40;99.90;;;;;;6153044;23;20934;-91
2023/09/27 09:42:33;;;;;;;20.67;17.70;;;21.50;99.90;;;;;;6153102;23;20723;-92
2023/09/27 09:45:10;;;;;;;19.27;17.35;;;21.70;99.90;;;;;;6151777;23;20381;-91
2023/09/27 09:47:45;;;;;;;19.50;16.17;;;21.50;99.90;;;;;;6151490;23;20381;-87
2023/09/27 09:50:18;;;;;;;18.50;16.42;;;21.50;99.90;;;;;;6150340;23;20527;-87
2023/09/27 09:52:57;;;;;;;18.50;16.57;;;21.40;99.90;;;;;;6176757;23;20361;-87
2023/09/27 09:55:31;;;;;;;18.10;15.30;;;21.40;99.90;;;;;;6174805;23;20703;-86
2023/09/27 09:58:11;;;;;;;19.48;16.55;;;21.40;99.90;;;;;;6150277;23;20382;-87
2023/09/27 10:00:42;;;;;;;18.50;16.60;;;21.50;99.90;;;;;;6176620;23;20369;-90
2023/09/27 10:03:14;;;;;;;21.90;19.05;;;21.50;99.90;;;;;;6149772;23;20394;-89
2023/09/27 10:05:40;;;;;;;21.02;18.83;;;21.40;99.90;;;;;;6176753;23;20843;-89
2023/09/27 10:08:07;;;;;;;20.20;18.10;;;21.40;99.90;;;;;;6150003;23;20448;-88
2023/09/27 10:10:35;;;;;;;20.70;17.55;;;21.30;99.90;;;;;;6176759;23;20400;-87
2023/09/27 10:13:04;;;;;;;21.00;18.80;;;21.50;99.90;;;;;;6149316;23;20405;-87
2023/09/27 10:15:33;;;;;;;21.10;18.90;;;21.10;99.90;;;;;;6149456;23;20803;-90
2023/09/27 10:18:21;;;;;;;21.60;19.30;;;21.00;99.90;;;;;;6148466;23;20378;-88
2023/09/27 10:21:05;;;;;;;21.77;19.52;;;20.90;99.90;;;;;;6174662;23;20377;-88
2023/09/27 10:23:45;;;;;;;22.15;19.80;;;20.80;99.90;;;;;;6174940;23;20378;-88
2023/09/27 10:26:18;;;;;;;23.48;20.40;;;20.70;99.90;;;;;;6150367;23;20408;-87
2023/09/27 10:29:15;;;;;;;21.00;18.65;;;20.70;99.90;;;;;;6174544;23;20397;-88
2023/09/27 10:32:01;;;;;;;21.48;17.77;;;20.70;99.90;;;;;;6174945;23;20429;-88
2023/09/27 10:34:27;;;;;;;20.90;18.50;;;20.60;99.90;;;;;;6174615;23;20409;-88
2023/09/27 10:36:54;;;;;;;20.85;18.65;;;21.00;99.90;;;;;;6175086;23;20376;-88
2023/09/27 10:39:20;;;;;;;22.17;19.23;;;20.50;99.90;;;;;;6149695;23;20448;-88
2023/09/27 10:41:48;;;;;;;22.50;19.83;;;20.90;99.90;;;;;;6149879;23;20401;-88
2023/09/27 10:44:28;;;;;;;19.77;17.63;;;20.70;99.90;;;;;;6150111;23;20748;-88
2023/09/27 10:46:54;;;;;;;18.70;16.70;;;20.60;99.90;;;;;;6149692;23;20370;-89
2023/09/27 10:49:21;;;;;;;20.75;17.10;;;20.70;99.90;;;;;;6125238;23;20393;-86
2023/09/27 10:51:47;;;;;;;20.25;16.85;;;20.70;99.90;;;;;;6150188;23;20365;-92
2023/09/27 10:54:13;;;;;;;18.90;16.38;;;20.70;99.90;;;;;;6149336;23;20460;-88
2023/09/27 10:56:43;;;;;;;18.48;15.70;;;20.70;99.90;;;;;;6176873;23;20439;-88
2023/09/27 10:59:08;;;;;;;19.52;16.83;;;20.70;99.90;;;;;;6150101;23;20838;-90
2023/09/27 11:01:35;;;;;;;18.83;15.10;;;20.80;99.90;;;;;;6149532;23;20477;-90
2023/09/27 11:04:03;;;;;;;19.42;14.85;;;20.80;99.90;;;;;;6149366;23;20396;-87
2023/09/27 11:06:31;;;;;;;16.20;14.38;;;20.90;99.90;;;;;;6149783;23;20370;-91
2023/09/27 11:09:23;;;;;;;20.00;15.33;;;21.00;99.90;;;;;;6149874;23;20471;-88
2023/09/27 11:11:53;;;;;;;16.38;13.40;;;21.00;99.90;;;;;;6171264;23;20382;-90
2023/09/27 11:14:31;;;;;;;17.73;14.45;;;21.00;99.90;;;;;;6149539;23;20375;-88
2023/09/27 11:17:17;;;;;;;15.68;13.55;;;21.00;99.90;;;;;;6149616;23;20385;-89
2023/09/27 11:19:42;;;;;;;16.60;14.55;;;21.00;99.90;;;;;;6174410;23;20862;-89
2023/09/27 11:22:08;;;;;;;18.67;14.48;;;21.10;99.90;;;;;;6149579;23;20373;-88
2023/09/27 11:24:40;;;;;;;17.67;14.63;;;21.20;99.90;;;;;;6149517;23;20365;-88
2023/09/27 11:27:09;;;;;;;18.25;13.55;;;21.20;99.90;;;;;;6176550;23;20728;-90
2023/09/27 11:29:35;;;;;;;14.88;12.30;;;21.10;99.90;;;;;;6175733;23;20385;-89
2023/09/27 11:32:01;;;;;;;14.15;11.80;;;21.10;99.90;;;;;;6149303;23;20370;-89
2023/09/27 11:34:27;;;;;;;14.95;11.25;;;21.10;99.90;;;;;;6149515;23;20846;-88
2023/09/27 11:36:55;;;;;;;14.10;9.02;;;21.20;99.90;;;;;;6174457;23;21016;-89
2023/09/27 11:39:48;;;;;;;14.15;9.25;;;21.20;99.90;;;;;;6149657;23;20402;-88
2023/09/27 11:42:14;;;;;;;13.82;8.50;;;21.40;99.90;;;;;;6149637;23;20381;-88
2023/09/27 11:44:39;;;;;;;14.47;9.33;;;21.10;99.90;;;;;;6124804;23;20372;-88
2023/09/27 11:47:07;;;;;;;13.75;8.65;;;21.10;99.90;;;;;;6149242;23;21131;-89
2023/09/27 11:49:33;;;;;;;12.95;8.55;;;21.40;99.90;;;;;;6175424;23;20719;-88
2023/09/27 11:52:10;;;;;;;11.40;7.60;;;21.40;99.90;;;;;;6149680;23;20908;-89
2023/09/27 11:54:41;;;;;;;12.95;7.80;;;21.10;99.90;;;;;;6149198;23;20382;-86
2023/09/27 11:57:08;;;;;;;11.80;6.77;;;21.20;99.90;;;;;;6148835;23;20381;-88
2023/09/27 11:59:34;;;;;;;10.43;6.38;;;21.60;99.90;;;;;;6149345;23;20374;-89
2023/09/27 12:02:00;;;;;;;9.77;6.32;;;21.90;99.90;;;;;;6149097;23;20505;-90
2023/09/27 12:04:25;;;;;;;7.80;5.85;;;21.90;99.90;;;;;;6149299;23;20823;-91
2023/09/27 12:06:51;;;;;;;9.07;5.10;;;22.30;99.90;;;;;;6124775;23;20401;-89
2023/09/27 12:09:17;;;;;;;9.55;4.70;;;22.90;99.90;;;;;;6149058;23;20416;-88
2023/09/27 12:11:42;;;;;;;9.00;4.50;;;23.20;99.90;;;;;;6175901;23;20424;-88
2023/09/27 12:14:08;;;;;;;7.40;4.43;;;23.40;99.90;;;;;;6149184;23;20408;-88
2023/09/27 12:16:34;;;;;;;8.40;4.43;;;23.30;99.90;;;;;;6149582;23;20389;-89
2023/09/27 12:19:00;;;;;;;8.45;4.15;;;23.70;99.90;;;;;;6151496;23;20534;-88
2023/09/27 12:21:26;;;;;;;6.68;3.63;;;23.90;99.90;;;;;;6151125;23;20365;-90
2023/09/27 12:23:51;;;;;;;7.20;2.97;;;24.10;99.90;;;;;;6151030;23;20754;-89
2023/09/27 12:26:18;;;;;;;8.40;3.28;;;24.60;99.90;;;;;;6177668;23;20909;-87
2023/09/27 12:28:43;;;;;;;6.33;3.00;;;24.60;99.90;;;;;;6150926;23;20428;-89
2023/09/27 12:31:11;;;;;;;4.93;2.80;;;24.90;97.90;;;;;;6151451;23;20432;-89